Terminal Aerodrome Forecast
Issued by NWS

Home | Current Version | Previous Version | Text Only | Print | Product List | Glossary On
Versions: 1 2 3 4 5 6 7 8 9 10 11 12 13 14 15 16 17 18 19 20 21 22 23 24 25 26 27
000
FTUS41 KOKX 120830 AAA
TAFHPN
TAF AMD
KHPN 120830Z 1209/1306 17004KT P6SM VCSH FEW025 OVC060
     FM121300 18006KT 6SM -RA BKN020
     FM121900 25008KT P6SM SCT025 OVC040
     FM122300 27011G19KT P6SM -SHSN BKN040
     FM130300 30014G24KT P6SM -SHSN BKN040
      AMD NOT SKED=

USA.gov is the U.S. government's official web portal to all federal, state and local government web resources and services.